Terminal Aerodrome Forecast
Issued by NWS

Home | Current Version | Previous Version | Graphics & Text | Print | Product List | Glossary On
Versions: 1 2 3 4 5 6 7 8 9 10 11 12 13 14
000
FTUS43 KICT 271700
TAFSLN
TAF
KSLN 271721Z 2718/2818 34016G24KT P6SM BKN200
     FM280000 33010KT P6SM BKN150
     FM280500 32005KT P6SM BKN150
     FM281500 34011KT P6SM SCT200=

USA.gov is the U.S. government's official web portal to all federal, state and local government web resources and services.